Green Bluff, Washington
Current Conditions -  °F | °C
As of 2:53 AM on Friday 31 Oct 2014 (Local Time) from KSFF Reporting Station
Broken Clouds Broken Clouds  
Wind Chill: 47°   Ceiling: 11000
Heat Index: 47°   Visibility: 10mi
Dew Point: 43°   Wind: 3mph
Humidity: 86%   Direction: 260°W
Pressure: 29.78"   Gusts: NA
Location:  47.8288°N, 117.215°W
Report Text: KSFF 310953Z AUTO 26003KT 10SM BKN110 08/06 A2978 RMK AO2 SLP081 T00830061
Loading
Personal Weather Stations






























Interactive Weather Map
Tropical Storm Tracking
New forecast layout! Learn more

10-Day Weather Forecast

Advertisements
Track Severe Weather on mobile